createdAt,value
2018-12-16T09:47:53.053Z,25.15
2018-12-16T09:52:42.715Z,21.68
2018-12-16T09:56:57.399Z,19.62
2018-12-16T09:59:32.815Z,19.37
2018-12-16T10:02:07.783Z,19.12
2018-12-16T10:11:07.262Z,23.87
2018-12-16T10:13:48.695Z,25.27
2018-12-16T10:16:31.899Z,24.60
2018-12-16T10:19:06.138Z,25.35
2018-12-16T10:21:40.936Z,25.68
2018-12-16T10:26:51.131Z,25.57
2018-12-16T10:29:30.926Z,27.23
2018-12-16T10:32:02.884Z,26.60
2018-12-16T10:34:44.415Z,26.77
2018-12-16T10:37:28.256Z,27.27
2018-12-16T10:40:07.461Z,26.63
2018-12-16T10:42:37.832Z,25.93
2018-12-16T10:45:19.246Z,26.33
2018-12-16T10:48:02.384Z,27.50
2018-12-16T10:50:35.442Z,27.13
2018-12-16T10:53:24.492Z,27.87
2018-12-16T10:56:03.628Z,25.83
2018-12-16T10:58:37.250Z,26.40
2018-12-16T11:01:17.812Z,27.03
2018-12-16T11:04:17.729Z,28.97
2018-12-16T11:06:50.899Z,25.30
2018-12-16T11:09:22.945Z,26.53
2018-12-16T11:12:03.450Z,25.13
2018-12-16T11:14:37.105Z,24.83
2018-12-16T11:17:19.778Z,26.33
2018-12-16T11:19:53.473Z,25.23
2018-12-16T11:22:36.545Z,23.97
2018-12-16T11:25:19.604Z,26.73
2018-12-16T11:27:58.763Z,26.57
2018-12-16T11:30:33.683Z,24.53
2018-12-16T11:33:16.049Z,27.27
2018-12-16T11:35:50.526Z,25.63
2018-12-16T11:38:34.105Z,25.60
2018-12-16T11:44:34.248Z,26.40
2018-12-16T11:47:17.390Z,26.60
2018-12-16T11:49:50.011Z,26.50
2018-12-16T11:52:31.337Z,34.93
2018-12-16T11:55:14.191Z,28.00
2018-12-16T11:57:56.864Z,26.50
2018-12-16T12:00:38.965Z,27.57
2018-12-16T12:03:13.920Z,26.50
2018-12-16T12:05:58.665Z,26.20
2018-12-16T12:08:33.884Z,24.83
2018-12-16T12:11:15.421Z,26.30
2018-12-16T12:14:02.970Z,27.33
2018-12-16T12:16:32.980Z,27.80
2018-12-16T12:19:05.026Z,27.40
2018-12-16T12:21:46.164Z,27.07
2018-12-16T12:24:20.603Z,26.40
2018-12-16T12:27:02.334Z,25.97
2018-12-16T12:29:36.023Z,25.13
2018-12-16T12:32:17.329Z,29.23
2018-12-16T12:35:07.777Z,24.93
2018-12-16T12:37:59.747Z,25.03
2018-12-16T12:40:34.499Z,25.37
2018-12-16T12:43:09.139Z,26.93
2018-12-16T12:45:59.383Z,24.13
2018-12-16T12:48:37.938Z,25.00
2018-12-16T12:51:13.535Z,26.67
2018-12-16T12:53:55.631Z,26.40
2018-12-16T12:56:36.924Z,25.20
2018-12-16T12:59:09.404Z,24.50
2018-12-16T13:01:48.279Z,24.80
2018-12-16T13:04:22.803Z,24.80
2018-12-16T13:07:12.233Z,23.97
2018-12-16T13:09:44.016Z,25.30
2018-12-16T13:12:25.580Z,24.93
2018-12-16T13:15:07.425Z,24.07
2018-12-16T13:17:48.511Z,25.83
2018-12-16T13:20:28.719Z,25.10
2018-12-16T13:23:05.086Z,27.13
2018-12-16T13:29:01.551Z,25.67
2018-12-16T13:31:49.400Z,27.80
2018-12-16T13:34:32.461Z,28.50
2018-12-16T13:37:16.342Z,39.60
2018-12-16T13:39:55.555Z,37.90
2018-12-16T13:42:28.721Z,37.87
2018-12-16T13:45:07.825Z,42.33
2018-12-16T13:47:49.875Z,37.73
2018-12-16T13:50:19.912Z,28.57
2018-12-16T13:53:02.808Z,28.53
2018-12-16T13:55:49.565Z,29.23
2018-12-16T14:04:47.861Z,32.27
2018-12-16T14:07:34.504Z,32.27
2018-12-16T14:10:17.594Z,32.17
2018-12-16T14:13:00.385Z,30.90
2018-12-16T14:15:44.578Z,29.23
2018-12-16T14:18:19.847Z,30.07
2018-12-16T14:21:01.642Z,29.33
2018-12-16T14:23:43.504Z,29.17
2018-12-16T14:29:21.431Z,30.00
2018-12-16T14:32:12.642Z,29.07
2018-12-16T14:34:53.119Z,30.30
2018-12-16T14:37:36.032Z,31.93
2018-12-16T14:40:09.151Z,29.57
2018-12-16T14:42:58.135Z,30.80
2018-12-16T14:45:39.875Z,31.77
2018-12-16T14:48:17.064Z,30.63
2018-12-16T14:50:59.309Z,30.37
2018-12-16T14:53:42.103Z,30.60
2018-12-16T14:56:21.735Z,30.87
2018-12-16T14:59:03.050Z,30.73
2018-12-16T15:01:44.923Z,31.80
2018-12-16T15:04:39.202Z,33.80
2018-12-16T15:07:23.419Z,32.03
2018-12-16T15:09:56.107Z,31.50
2018-12-16T15:12:37.564Z,35.03
2018-12-16T15:15:20.018Z,33.87
2018-12-16T15:18:01.547Z,35.03
2018-12-16T15:20:32.122Z,34.97
2018-12-16T15:23:15.844Z,36.50
2018-12-16T15:28:56.602Z,34.90
2018-12-16T15:31:29.092Z,36.20
2018-12-16T15:34:04.051Z,37.10
2018-12-16T15:36:49.843Z,37.03
2018-12-16T15:39:22.537Z,38.77
2018-12-16T15:42:11.111Z,39.13
2018-12-16T15:44:52.532Z,40.40
2018-12-16T15:47:34.355Z,41.63
2018-12-16T15:50:10.882Z,42.07
2018-12-16T15:52:52.520Z,43.70
2018-12-16T15:55:34.165Z,43.00
2018-12-16T15:58:16.198Z,38.67
2018-12-16T16:00:51.337Z,42.33
2018-12-16T16:03:44.610Z,42.87
2018-12-16T16:06:18.081Z,45.00
2018-12-16T16:08:59.557Z,49.30
2018-12-16T16:11:47.975Z,48.03
2018-12-16T16:14:29.358Z,49.63
2018-12-16T16:17:08.401Z,48.37
2018-12-16T16:19:51.323Z,50.67
2018-12-16T16:22:33.221Z,49.30
2018-12-16T16:25:08.706Z,49.00
2018-12-16T16:27:45.887Z,53.07
2018-12-16T16:30:29.607Z,51.87
2018-12-16T16:33:11.446Z,53.47
2018-12-16T16:35:53.519Z,54.00
2018-12-16T16:38:24.355Z,53.17
2018-12-16T16:41:07.023Z,52.77
2018-12-16T16:43:45.672Z,56.60
2018-12-16T16:49:12.180Z,54.80
2018-12-16T16:51:52.172Z,57.10
2018-12-16T16:54:24.515Z,56.97
2018-12-16T16:56:57.555Z,59.40
2018-12-16T16:59:28.068Z,57.93
2018-12-16T17:02:04.087Z,60.47
2018-12-16T17:04:52.778Z,61.57
2018-12-16T17:07:22.647Z,58.27
2018-12-16T17:09:55.350Z,64.47
2018-12-16T17:12:36.863Z,62.00
2018-12-16T17:15:15.516Z,60.33
2018-12-16T17:17:48.441Z,61.60
2018-12-16T17:20:18.524Z,63.27
2018-12-16T17:23:01.050Z,62.53
2018-12-16T17:25:48.055Z,61.23
2018-12-16T17:28:16.001Z,63.33
2018-12-16T17:30:50.751Z,62.43
2018-12-16T17:33:32.073Z,62.33
2018-12-16T17:36:13.981Z,61.30
2018-12-16T17:38:56.016Z,61.93
2018-12-16T17:41:37.854Z,59.90
2018-12-16T17:44:13.000Z,59.27
2018-12-16T17:46:50.278Z,58.37
2018-12-16T17:52:23.415Z,55.50
2018-12-16T17:55:11.037Z,57.20
2018-12-16T17:57:59.510Z,56.10
2018-12-16T18:00:32.365Z,52.57
2018-12-16T18:03:11.230Z,55.30
2018-12-16T18:05:52.774Z,52.83
2018-12-16T18:08:26.528Z,51.43
2018-12-16T18:11:12.748Z,51.83
2018-12-16T18:13:54.526Z,50.47
2018-12-16T18:19:33.917Z,52.03
2018-12-16T18:22:14.083Z,50.90
2018-12-16T18:24:48.648Z,51.10
2018-12-16T18:27:24.087Z,47.77
2018-12-16T18:30:05.573Z,52.50
2018-12-16T18:32:53.888Z,47.73
2018-12-16T18:35:32.512Z,47.57
2018-12-16T18:38:05.295Z,45.60
2018-12-16T18:40:38.238Z,43.63
2018-12-16T18:43:17.779Z,47.20
2018-12-16T18:45:57.801Z,47.13
2018-12-16T18:48:40.828Z,51.00
2018-12-16T18:51:17.402Z,49.87
2018-12-16T18:57:07.122Z,53.33
2018-12-16T18:59:37.848Z,57.83
2018-12-16T19:02:21.468Z,56.40
2018-12-16T19:05:02.834Z,60.73
2018-12-16T19:07:47.122Z,62.63
2018-12-16T19:10:20.599Z,65.53
2018-12-16T19:13:07.000Z,59.40
2018-12-16T19:15:51.718Z,57.93
2018-12-16T19:18:29.573Z,58.97
2018-12-16T19:21:09.339Z,65.53
2018-12-16T19:23:53.700Z,62.90
2018-12-16T19:26:37.564Z,49.77
2018-12-16T19:29:12.412Z,50.00
2018-12-16T19:31:56.729Z,53.83
2018-12-16T19:34:40.111Z,51.43
2018-12-16T19:40:18.730Z,52.33
2018-12-16T19:43:00.518Z,49.83
2018-12-16T19:45:41.744Z,53.43
2018-12-16T19:48:23.567Z,55.10
2018-12-16T19:50:56.234Z,47.80
2018-12-16T19:53:37.470Z,58.33
2018-12-16T19:56:19.257Z,53.13
2018-12-16T19:59:01.505Z,68.40
2018-12-16T20:01:40.310Z,64.47
2018-12-16T20:04:24.118Z,76.07
2018-12-16T20:07:05.486Z,66.00
2018-12-16T20:09:37.875Z,57.27
2018-12-16T20:12:24.321Z,58.33
2018-12-16T20:15:06.052Z,59.40
2018-12-16T20:17:48.852Z,56.60
2018-12-16T20:20:21.778Z,57.30
2018-12-16T20:23:00.398Z,62.73
2018-12-16T20:25:41.810Z,75.60
2018-12-16T20:28:23.896Z,70.10
2018-12-16T20:30:56.344Z,64.33
2018-12-16T20:33:40.164Z,64.97
2018-12-16T20:36:14.611Z,70.07
2018-12-16T20:38:56.383Z,67.83
2018-12-16T20:41:38.223Z,61.43
2018-12-16T20:44:15.576Z,67.20
2018-12-16T20:46:51.011Z,68.43
2018-12-16T20:49:25.686Z,65.93
2018-12-16T20:52:00.349Z,62.90
2018-12-16T20:54:45.562Z,62.83
2018-12-16T20:57:28.363Z,54.53
2018-12-16T20:59:58.702Z,59.80
2018-12-16T21:02:40.988Z,59.60
2018-12-16T21:05:22.894Z,64.23
2018-12-16T21:08:04.724Z,62.23
2018-12-16T21:10:37.763Z,58.37
2018-12-16T21:13:24.263Z,61.33
2018-12-16T21:16:04.342Z,58.10
2018-12-16T21:18:37.005Z,62.00
2018-12-16T21:21:09.956Z,64.47
2018-12-16T21:23:48.357Z,67.67
2018-12-16T21:26:30.171Z,71.90
2018-12-16T21:29:03.844Z,68.07
2018-12-16T21:31:38.549Z,67.47
2018-12-16T21:34:20.297Z,65.30
2018-12-16T21:37:02.159Z,62.77
2018-12-16T21:39:37.354Z,61.23
2018-12-16T21:42:18.909Z,60.17
2018-12-16T21:45:00.862Z,59.47
2018-12-16T21:47:43.855Z,60.57
2018-12-16T21:50:14.227Z,60.00
2018-12-16T21:53:00.545Z,56.90
2018-12-16T21:55:32.182Z,59.03
2018-12-16T21:58:04.142Z,58.47
2018-12-16T22:00:37.252Z,58.47
2018-12-16T22:03:18.616Z,57.90
2018-12-16T22:06:00.474Z,55.97
2018-12-16T22:08:36.735Z,59.83
2018-12-16T22:11:08.730Z,57.77
2018-12-16T22:13:50.195Z,53.73
2018-12-16T22:16:33.799Z,48.90
2018-12-16T22:19:08.151Z,46.87
2018-12-16T22:21:49.839Z,48.13
2018-12-16T22:24:31.899Z,50.70
2018-12-16T22:27:08.951Z,50.77
2018-12-16T22:29:41.411Z,52.13
2018-12-16T22:32:17.988Z,51.93
2018-12-16T22:34:50.195Z,51.37
2018-12-16T22:37:24.918Z,53.50
2018-12-16T22:39:59.826Z,53.43
2018-12-16T22:42:31.893Z,52.53
2018-12-16T22:45:04.408Z,53.50
2018-12-16T22:47:40.390Z,54.03
2018-12-16T22:50:21.862Z,52.77
2018-12-16T22:53:03.638Z,52.30
2018-12-16T22:55:45.602Z,55.73
2018-12-16T22:58:27.610Z,53.27
2018-12-16T23:01:12.311Z,52.67
2018-12-16T23:03:55.846Z,53.13
2018-12-16T23:06:37.226Z,54.47
2018-12-16T23:09:09.499Z,54.03
2018-12-16T23:11:46.543Z,54.47
2018-12-16T23:14:21.483Z,53.73
2018-12-16T23:17:06.575Z,53.50
2018-12-16T23:19:38.498Z,54.87
2018-12-16T23:22:20.044Z,53.27
2018-12-16T23:25:01.776Z,51.00
2018-12-16T23:27:43.780Z,52.13
2018-12-16T23:30:16.047Z,53.00
2018-12-16T23:33:03.400Z,54.20
2018-12-16T23:35:45.171Z,50.87
2018-12-16T23:38:27.135Z,51.70
2018-12-16T23:44:09.543Z,51.30
2018-12-16T23:49:42.818Z,49.97
2018-12-16T23:52:24.138Z,51.93
2018-12-16T23:55:05.296Z,49.27
2018-12-16T23:57:46.982Z,49.33
